Time;durP1;ratioP1;P1;durP2;ratioP2;P2;SDS_P1;SDS_P2;PMS_P1;PMS_P2;Temp;Humidity;BMP_temperature;BMP_pressure;BME280_temperature;BME280_humidity;BME280_pressure;Samples;Min_cycle;Max_cycle;Signal;HPM_P1;HPM_P2
2022/12/21 00:01:28;;;;;;;;;;;;;;;-0.36;100.00;100542.28;4949672;28;19922;-78
2022/12/21 00:03:55;;;;;;;;;;;;;;;-0.29;100.00;100543.75;4945118;28;19978;-78
2022/12/21 00:06:21;;;;;;;;;;;;;;;-0.22;100.00;100529.69;4945055;28;20314;-76
2022/12/21 00:08:48;;;;;;;;;;;;;;;-0.18;100.00;100532.16;4946646;28;19933;-78
2022/12/21 00:11:14;;;;;;;;;;;;;;;-0.11;100.00;100543.13;4946503;28;20314;-78
2022/12/21 00:13:40;;;;;;;;;;;;;;;-0.09;100.00;100529.22;4948450;28;19933;-79
2022/12/21 00:16:07;;;;;;;;;;;;;;;-0.04;100.00;100529.06;4949225;28;19919;-78
2022/12/21 00:18:33;;;;;;;;;;;;;;;-0.02;100.00;100528.13;4952443;28;20417;-78
2022/12/21 00:21:00;;;;;;;;;;;;;;;-0.13;100.00;100542.34;4951096;28;19976;-78
2022/12/21 00:23:25;;;;;;;;;;;;;;;-0.21;100.00;100536.56;4947199;29;20010;-77
2022/12/21 00:25:51;;;;;;;;;;;;;;;-0.21;100.00;100534.81;4949941;28;19965;-78
2022/12/21 00:28:16;;;;;;;;;;;;;;;-0.17;100.00;100545.94;4949926;29;19919;-77
2022/12/21 00:30:41;;;;;;;;;;;;;;;-0.12;100.00;100525.91;4945611;28;19919;-78
2022/12/21 00:33:07;;;;;;;;;;;;;;;-0.06;100.00;100525.69;4946756;29;19919;-77
2022/12/21 00:35:32;;;;;;;;;;;;;;;-0.08;100.00;100517.09;4947477;28;19919;-76
2022/12/21 00:37:58;;;;;;;;;;;;;;;-0.26;100.00;100520.31;4944551;28;19964;-78
2022/12/21 00:40:25;;;;;;;;;;;;;;;-0.24;100.00;100521.13;4948093;28;20397;-77
2022/12/21 00:42:50;;;;;;;;;;;;;;;-0.23;100.00;100522.78;4942477;29;20403;-77
2022/12/21 00:45:16;;;;;;;;;;;;;;;-0.20;100.00;100527.88;4940690;28;19926;-77
2022/12/21 00:47:41;;;;;;;;;;;;;;;-0.19;100.00;100519.22;4944745;28;19919;-78
2022/12/21 00:50:07;;;;;;;;;;;;;;;-0.18;100.00;100516.56;4943101;28;19919;-78
2022/12/21 00:52:32;;;;;;;;;;;;;;;-0.34;100.00;100519.72;4942905;28;19919;-77
2022/12/21 00:54:58;;;;;;;;;;;;;;;-0.25;100.00;100520.28;4942281;29;19973;-76
2022/12/21 00:57:23;;;;;;;;;;;;;;;-0.20;100.00;100514.91;4943070;28;19918;-75
2022/12/21 00:59:49;;;;;;;;;;;;;;;-0.16;100.00;100500.94;4944138;28;19924;-77
2022/12/21 01:02:14;;;;;;;;;;;;;;;-0.11;100.00;100496.44;4943585;28;20303;-77
2022/12/21 01:04:41;;;;;;;;;;;;;;;-0.12;100.00;100486.97;4940284;28;19919;-77
2022/12/21 01:07:07;;;;;;;;;;;;;;;-0.10;100.00;100478.22;4927590;28;19967;-76
2022/12/21 01:09:34;;;;;;;;;;;;;;;-0.04;100.00;100488.41;4945012;28;20488;-77
2022/12/21 01:12:00;;;;;;;;;;;;;;;-0.02;100.00;100483.16;4941603;28;19922;-78
2022/12/21 01:14:26;;;;;;;;;;;;;;;0.01;100.00;100475.25;4948161;28;19918;-77
2022/12/21 01:16:51;;;;;;;;;;;;;;;0.04;100.00;100474.31;4941652;28;20052;-77
2022/12/21 01:19:17;;;;;;;;;;;;;;;0.06;100.00;100468.16;4946579;28;19930;-78
2022/12/21 01:21:42;;;;;;;;;;;;;;;0.08;100.00;100466.34;4951171;28;20006;-78
2022/12/21 01:24:10;;;;;;;;;;;;;;;0.09;100.00;100467.19;4949893;29;19930;-76
2022/12/21 01:26:35;;;;;;;;;;;;;;;0.09;100.00;100483.63;4953949;28;20267;-77
2022/12/21 01:29:01;;;;;;;;;;;;;;;0.02;100.00;100474.34;4955825;28;19919;-76
2022/12/21 01:31:27;;;;;;;;;;;;;;;0.00;100.00;100471.00;4952786;28;19919;-77
2022/12/21 01:33:52;;;;;;;;;;;;;;;0.03;100.00;100473.47;4957017;28;19941;-78
2022/12/21 01:36:18;;;;;;;;;;;;;;;0.03;100.00;100472.63;4951425;28;19944;-78
2022/12/21 01:38:44;;;;;;;;;;;;;;;0.04;100.00;100479.50;4953392;28;20016;-77
2022/12/21 01:41:14;;;;;;;;;;;;;;;0.06;100.00;100477.72;4952679;28;19986;-77
2022/12/21 01:43:41;;;;;;;;;;;;;;;0.08;100.00;100476.72;4947938;28;19972;-78
2022/12/21 01:46:09;;;;;;;;;;;;;;;0.08;100.00;100470.69;4949552;28;19915;-79
2022/12/21 01:48:39;;;;;;;;;;;;;;;0.12;100.00;100461.91;4951354;28;20275;-79
2022/12/21 01:51:05;;;;;;;;;;;;;;;0.11;100.00;100471.44;4952708;28;19919;-79
2022/12/21 01:53:37;;;;;;;;;;;;;;;0.13;100.00;100472.22;4978738;28;19973;-79
2022/12/21 01:56:05;;;;;;;;;;;;;;;0.11;100.00;100466.25;4968131;28;20009;-77
2022/12/21 01:58:31;;;;;;;;;;;;;;;0.12;100.00;100467.94;4948787;28;19940;-79
2022/12/21 02:00:58;;;;;;;;;;;;;;;0.16;100.00;100464.34;4948133;28;19919;-79
2022/12/21 02:03:25;;;;;;;;;;;;;;;0.17;100.00;100457.41;4947894;28;20316;-77
2022/12/21 02:05:51;;;;;;;;;;;;;;;0.17;100.00;100449.63;4950624;28;19930;-78
2022/12/21 02:08:16;;;;;;;;;;;;;;;0.14;100.00;100450.56;4945241;28;20440;-79
2022/12/21 02:10:42;;;;;;;;;;;;;;;0.10;100.00;100454.19;4950460;28;19919;-78
2022/12/21 02:13:09;;;;;;;;;;;;;;;0.14;100.00;100444.53;4975586;28;19922;-79
2022/12/21 02:16:01;;;;;;;;;;;;;;;0.18;100.00;100439.16;4939152;29;20290;-79
2022/12/21 02:18:29;;;;;;;;;;;;;;;0.11;100.00;100435.13;4948824;28;19919;-77
2022/12/21 02:21:07;;;;;;;;;;;;;;;0.12;100.00;100435.97;4941194;28;19964;-77
2022/12/21 02:23:35;;;;;;;;;;;;;;;0.15;100.00;100434.09;4948067;28;20287;-77
2022/12/21 02:26:04;;;;;;;;;;;;;;;0.17;100.00;100429.72;4946527;28;20041;-77
2022/12/21 02:28:48;;;;;;;;;;;;;;;0.24;100.00;100436.34;4949181;28;19953;-80
2022/12/21 02:31:32;;;;;;;;;;;;;;;0.29;100.00;100439.63;4943908;28;19924;-77
2022/12/21 02:34:01;;;;;;;;;;;;;;;0.29;100.00;100439.63;4945290;28;20259;-78
2022/12/21 02:36:29;;;;;;;;;;;;;;;0.28;100.00;100434.50;4940383;28;19918;-76
2022/12/21 02:38:57;;;;;;;;;;;;;;;0.25;100.00;100419.88;4944905;28;20009;-76
2022/12/21 02:41:29;;;;;;;;;;;;;;;0.23;100.00;100419.09;4940500;28;19971;-77
2022/12/21 02:44:15;;;;;;;;;;;;;;;0.15;100.00;100422.88;4945639;28;19925;-79
2022/12/21 02:47:00;;;;;;;;;;;;;;;0.10;100.00;100428.22;4938530;29;20441;-78
2022/12/21 02:49:57;;;;;;;;;;;;;;;0.12;100.00;100429.00;4938509;28;19925;-77
2022/12/21 02:52:46;;;;;;;;;;;;;;;0.14;100.00;100422.00;4942026;28;19973;-77
2022/12/21 02:55:12;;;;;;;;;;;;;;;-0.10;100.00;100423.75;4950245;28;19923;-77
2022/12/21 02:57:40;;;;;;;;;;;;;;;-0.08;100.00;100434.06;4925248;28;19968;-77
2022/12/21 03:00:08;;;;;;;;;;;;;;;-0.06;100.00;100427.09;4944951;29;20301;-76
2022/12/21 03:02:42;;;;;;;;;;;;;;;0.00;100.00;100419.91;4940091;28;20005;-77
2022/12/21 03:05:17;;;;;;;;;;;;;;;-0.03;100.00;100407.06;4935965;28;19918;-77
2022/12/21 03:07:52;;;;;;;;;;;;;;;-0.02;100.00;100418.28;4943083;28;20375;-78
2022/12/21 03:10:34;;;;;;;;;;;;;;;0.01;100.00;100418.16;4938872;28;20290;-77
2022/12/21 03:13:23;;;;;;;;;;;;;;;0.03;100.00;100421.56;4942406;28;20335;-78
2022/12/21 03:16:18;;;;;;;;;;;;;;;0.09;100.00;100410.97;4932892;28;19929;-77
2022/12/21 03:18:44;;;;;;;;;;;;;;;0.08;100.00;100398.88;4939400;28;19918;-77
2022/12/21 03:21:28;;;;;;;;;;;;;;;-0.10;100.00;100397.81;4939793;28;19941;-77
2022/12/21 03:24:08;;;;;;;;;;;;;;;-0.10;100.00;100395.22;4939979;28;19976;-77
2022/12/21 03:26:36;;;;;;;;;;;;;;;-0.14;100.00;100388.44;4938415;29;19961;-77
2022/12/21 03:29:02;;;;;;;;;;;;;;;-0.06;100.00;100393.38;4939731;28;20286;-77
2022/12/21 03:31:30;;;;;;;;;;;;;;;-0.06;100.00;100383.81;4941036;28;19926;-78
2022/12/21 03:34:00;;;;;;;;;;;;;;;-0.09;100.00;100385.69;4942879;28;19919;-78
2022/12/21 03:36:32;;;;;;;;;;;;;;;-0.01;100.00;100388.84;4936579;28;19942;-77
2022/12/21 03:39:03;;;;;;;;;;;;;;;-0.01;100.00;100378.47;4944495;28;20267;-77
2022/12/21 03:41:40;;;;;;;;;;;;;;;0.05;100.00;100367.88;4940636;28;19925;-78
2022/12/21 03:44:09;;;;;;;;;;;;;;;0.10;100.00;100375.47;4937778;29;20009;-77
2022/12/21 03:46:37;;;;;;;;;;;;;;;0.14;100.00;100372.69;4942347;28;19919;-78
2022/12/21 03:49:07;;;;;;;;;;;;;;;0.17;100.00;100377.78;4943066;28;19919;-77
2022/12/21 03:51:44;;;;;;;;;;;;;;;0.22;100.00;100375.88;4937559;28;20005;-77
2022/12/21 03:54:32;;;;;;;;;;;;;;;0.25;100.00;100369.69;4946149;28;19919;-78
2022/12/21 03:56:57;;;;;;;;;;;;;;;0.27;100.00;100363.56;4941225;28;19956;-77
2022/12/21 03:59:23;;;;;;;;;;;;;;;0.29;100.00;100355.72;4944236;28;19977;-77
2022/12/21 04:01:58;;;;;;;;;;;;;;;0.18;100.00;100363.03;4946863;28;19954;-78
2022/12/21 04:04:25;;;;;;;;;;;;;;;0.15;100.00;100358.84;4938192;28;19918;-78
2022/12/21 04:06:52;;;;;;;;;;;;;;;0.13;100.00;100355.44;4946379;28;19926;-77
2022/12/21 04:09:18;;;;;;;;;;;;;;;0.13;100.00;100360.63;4946255;28;20290;-77
2022/12/21 04:14:28;;;;;;;;;;;;;;;0.15;100.00;100332.88;4946723;29;20397;-76
2022/12/21 04:16:53;;;;;;;;;;;;;;;0.22;100.00;100333.50;4943229;28;19950;-76
2022/12/21 04:22:03;;;;;;;;;;;;;;;0.32;100.00;100335.66;4939108;28;19923;-76
2022/12/21 04:29:56;;;;;;;;;;;;;;;0.45;100.00;100340.38;4939932;28;19918;-76
2022/12/21 04:32:22;;;;;;;;;;;;;;;0.47;100.00;100339.44;4946050;28;19972;-75
2022/12/21 04:34:47;;;;;;;;;;;;;;;0.52;100.00;100334.06;4945443;28;20022;-77
2022/12/21 04:37:31;;;;;;;;;;;;;;;0.52;100.00;100339.25;4943598;28;19926;-76
2022/12/21 04:39:57;;;;;;;;;;;;;;;0.47;100.00;100338.59;4938309;28;19919;-77
2022/12/21 04:42:22;;;;;;;;;;;;;;;0.40;100.00;100336.22;4946764;28;19964;-77
2022/12/21 04:44:48;;;;;;;;;;;;;;;0.41;100.00;100330.09;4942543;28;19926;-77
2022/12/21 04:47:14;;;;;;;;;;;;;;;0.41;100.00;100324.91;4946075;28;19936;-75
2022/12/21 04:49:39;;;;;;;;;;;;;;;0.42;100.00;100320.56;4942622;28;19979;-76
2022/12/21 04:52:05;;;;;;;;;;;;;;;0.46;100.00;100321.31;4945065;28;19941;-77
2022/12/21 04:54:30;;;;;;;;;;;;;;;0.47;100.00;100316.06;4946937;28;19922;-77
2022/12/21 04:56:56;;;;;;;;;;;;;;;0.49;100.00;100315.97;4963169;28;20286;-77
2022/12/21 04:59:21;;;;;;;;;;;;;;;0.48;100.00;100319.47;4941164;28;19919;-77
2022/12/21 05:01:46;;;;;;;;;;;;;;;0.48;100.00;100324.66;4943554;29;20441;-77
2022/12/21 05:04:12;;;;;;;;;;;;;;;0.46;100.00;100331.69;4944140;28;19919;-75
2022/12/21 05:06:37;;;;;;;;;;;;;;;0.46;100.00;100332.53;4948831;28;19930;-77
2022/12/21 05:09:03;;;;;;;;;;;;;;;0.48;100.00;100329.84;4947006;28;19919;-77
2022/12/21 05:11:28;;;;;;;;;;;;;;;0.49;100.00;100326.38;4948781;28;19926;-76
2022/12/21 05:13:53;;;;;;;;;;;;;;;0.51;100.00;100319.38;4945286;28;19926;-78
2022/12/21 05:16:20;;;;;;;;;;;;;;;0.43;100.00;100327.44;4946614;29;19918;-77
2022/12/21 05:18:48;;;;;;;;;;;;;;;0.39;100.00;100321.53;4944816;28;19949;-77
2022/12/21 05:21:14;;;;;;;;;;;;;;;0.40;100.00;100328.44;4946080;28;19927;-77
2022/12/21 05:23:40;;;;;;;;;;;;;;;0.39;100.00;100326.75;4943337;29;20290;-77
2022/12/21 05:26:06;;;;;;;;;;;;;;;0.40;100.00;100328.44;4946423;28;20279;-77
2022/12/21 05:28:32;;;;;;;;;;;;;;;0.43;100.00;100327.44;4949928;28;19918;-77
2022/12/21 05:30:57;;;;;;;;;;;;;;;0.47;100.00;100333.38;4958974;28;19998;-77
2022/12/21 05:33:23;;;;;;;;;;;;;;;0.37;100.00;100325.09;4947943;28;19953;-77
2022/12/21 05:35:48;;;;;;;;;;;;;;;0.35;100.00;100330.34;4944453;28;19926;-77
2022/12/21 05:38:14;;;;;;;;;;;;;;;0.34;100.00;100328.69;4958129;28;19919;-78
2022/12/21 05:40:45;;;;;;;;;;;;;;;0.34;100.00;100320.88;4949390;28;19919;-76
2022/12/21 05:43:11;;;;;;;;;;;;;;;0.28;100.00;100320.28;4948939;29;20337;-77
2022/12/21 05:45:36;;;;;;;;;;;;;;;0.26;100.00;100307.34;4942955;29;19976;-78
2022/12/21 05:48:01;;;;;;;;;;;;;;;0.31;100.00;100302.81;4950128;28;20026;-76
2022/12/21 05:50:27;;;;;;;;;;;;;;;0.34;100.00;100320.03;4947988;28;19919;-77
2022/12/21 05:52:53;;;;;;;;;;;;;;;0.35;100.00;100312.16;4945277;28;19923;-77
2022/12/21 05:55:18;;;;;;;;;;;;;;;0.37;100.00;100307.78;4967300;28;19948;-77
2022/12/21 05:57:43;;;;;;;;;;;;;;;0.39;100.00;100303.38;4947315;28;19926;-76
2022/12/21 06:00:09;;;;;;;;;;;;;;;0.41;100.00;100304.13;4949580;28;19919;-77
2022/12/21 06:02:37;;;;;;;;;;;;;;;0.31;100.00;100310.59;4942895;28;19986;-76
2022/12/21 06:05:03;;;;;;;;;;;;;;;0.29;100.00;100309.84;4950094;28;19965;-77
2022/12/21 06:07:29;;;;;;;;;;;;;;;0.20;100.00;100305.00;4947822;28;20371;-77
2022/12/21 06:09:54;;;;;;;;;;;;;;;0.23;100.00;100314.44;4948847;28;19954;-77
2022/12/21 06:12:20;;;;;;;;;;;;;;;0.23;100.00;100299.69;4949296;28;19914;-76
2022/12/21 06:14:45;;;;;;;;;;;;;;;0.24;100.00;100305.69;4949564;28;20476;-76
2022/12/21 06:17:11;;;;;;;;;;;;;;;0.16;100.00;100311.22;4947226;28;19923;-76
2022/12/21 06:19:36;;;;;;;;;;;;;;;0.23;100.00;100310.09;4948773;28;19915;-76
2022/12/21 06:22:01;;;;;;;;;;;;;;;0.26;100.00;100309.94;4945226;28;20294;-77
2022/12/21 06:24:27;;;;;;;;;;;;;;;0.14;100.00;100315.59;4949284;28;19939;-79
2022/12/21 06:26:52;;;;;;;;;;;;;;;0.11;100.00;100299.31;4955601;29;19926;-76
2022/12/21 06:29:18;;;;;;;;;;;;;;;0.12;100.00;100298.44;4953933;28;19978;-77
2022/12/21 06:31:43;;;;;;;;;;;;;;;0.15;100.00;100282.72;4946105;28;19919;-77
2022/12/21 06:34:12;;;;;;;;;;;;;;;0.20;100.00;100284.22;4952837;28;20006;-77
2022/12/21 06:36:38;;;;;;;;;;;;;;;0.25;100.00;100286.63;4952321;28;19918;-76
2022/12/21 06:39:03;;;;;;;;;;;;;;;0.29;100.00;100289.06;4947302;28;19926;-77
2022/12/21 06:41:28;;;;;;;;;;;;;;;0.33;100.00;100290.63;4948023;28;19925;-77
2022/12/21 06:43:54;;;;;;;;;;;;;;;0.35;100.00;100288.81;4939714;28;19925;-78
2022/12/21 06:46:20;;;;;;;;;;;;;;;0.38;100.00;100293.03;4944591;28;20304;-79
2022/12/21 06:48:46;;;;;;;;;;;;;;;0.38;100.00;100296.50;4933600;28;19922;-77
2022/12/21 06:51:13;;;;;;;;;;;;;;;0.39;100.00;100299.94;4936728;28;19919;-80
2022/12/21 06:53:41;;;;;;;;;;;;;;;0.41;100.00;100298.94;4938726;28;19919;-78
2022/12/21 06:56:08;;;;;;;;;;;;;;;0.42;100.00;100289.41;4940033;28;20270;-78
2022/12/21 06:58:34;;;;;;;;;;;;;;;0.44;100.00;100281.56;4939457;29;19933;-77
2022/12/21 07:01:08;;;;;;;;;;;;;;;0.45;100.00;100288.44;4941952;28;19929;-81
2022/12/21 07:03:33;;;;;;;;;;;;;;;0.47;100.00;100297.03;4938464;28;19923;-76
2022/12/21 07:05:59;;;;;;;;;;;;;;;0.43;100.00;100290.25;4940934;29;19929;-77
2022/12/21 07:08:25;;;;;;;;;;;;;;;0.43;100.00;100305.84;4941997;28;20017;-79
2022/12/21 07:10:55;;;;;;;;;;;;;;;0.45;100.00;100311.81;4942387;28;20346;-78
2022/12/21 07:13:20;;;;;;;;;;;;;;;0.46;100.00;100306.56;4942028;29;20354;-78
2022/12/21 07:15:46;;;;;;;;;;;;;;;0.46;100.00;100316.13;4940841;28;20792;-78
2022/12/21 07:18:11;;;;;;;;;;;;;;;0.35;100.00;100314.75;4942404;28;19919;-78
2022/12/21 07:20:37;;;;;;;;;;;;;;;0.34;100.00;100312.25;4939489;29;19961;-78
2022/12/21 07:23:02;;;;;;;;;;;;;;;0.36;100.00;100321.66;4939851;28;19919;-77
2022/12/21 07:25:28;;;;;;;;;;;;;;;0.38;100.00;100319.00;4942005;28;19926;-78
2022/12/21 07:27:55;;;;;;;;;;;;;;;0.44;100.00;100315.31;4945465;28;19993;-77
2022/12/21 07:30:20;;;;;;;;;;;;;;;0.41;100.00;100309.31;4945060;28;19958;-78
2022/12/21 07:32:45;;;;;;;;;;;;;;;0.33;100.00;100306.22;4945401;28;19965;-78
2022/12/21 07:35:11;;;;;;;;;;;;;;;0.35;100.00;100299.19;4947370;28;19918;-78
2022/12/21 07:37:36;;;;;;;;;;;;;;;0.37;100.00;100294.78;4943659;28;19919;-78
2022/12/21 07:40:04;;;;;;;;;;;;;;;0.39;100.00;100299.94;4943367;28;19972;-77
2022/12/21 07:42:31;;;;;;;;;;;;;;;0.45;100.00;100304.03;4945935;28;19918;-78
2022/12/21 07:45:05;;;;;;;;;;;;;;;0.49;100.00;100300.41;4943057;28;20290;-78
2022/12/21 07:47:37;;;;;;;;;;;;;;;0.54;100.00;100294.09;4944952;29;19919;-77
2022/12/21 07:50:03;;;;;;;;;;;;;;;0.59;100.00;100296.53;4962181;28;19942;-76
2022/12/21 07:52:30;;;;;;;;;;;;;;;0.51;100.00;100308.97;4946711;28;19921;-77
2022/12/21 07:54:55;;;;;;;;;;;;;;;0.52;100.00;100300.28;4948061;28;19919;-78
2022/12/21 07:57:20;;;;;;;;;;;;;;;0.54;100.00;100295.84;4945323;28;19929;-79
2022/12/21 07:59:46;;;;;;;;;;;;;;;0.58;100.00;100307.84;4946351;28;19922;-78
2022/12/21 08:02:11;;;;;;;;;;;;;;;0.61;100.00;100315.50;4945049;28;19918;-76
2022/12/21 08:04:37;;;;;;;;;;;;;;;0.64;100.00;100317.97;4944337;28;20367;-77
2022/12/21 08:07:02;;;;;;;;;;;;;;;0.66;100.00;100308.34;4951383;28;20278;-76
2022/12/21 08:09:27;;;;;;;;;;;;;;;0.71;100.00;100306.41;4943693;28;19918;-75
2022/12/21 08:11:53;;;;;;;;;;;;;;;0.74;100.00;100311.50;4947681;28;19930;-76
2022/12/21 08:14:18;;;;;;;;;;;;;;;0.81;100.00;100307.75;4949095;28;19933;-76
2022/12/21 08:16:44;;;;;;;;;;;;;;;0.69;100.00;100297.84;4946675;28;20361;-77
2022/12/21 08:19:10;;;;;;;;;;;;;;;0.66;100.00;100304.00;4944749;28;19941;-76
2022/12/21 08:21:35;;;;;;;;;;;;;;;0.71;100.00;100301.22;4948589;28;20010;-77
2022/12/21 08:24:01;;;;;;;;;;;;;;;0.75;100.00;100305.41;4946092;28;19923;-76
2022/12/21 08:26:26;;;;;;;;;;;;;;;0.71;100.00;100298.63;4947879;28;19944;-76
2022/12/21 08:28:53;;;;;;;;;;;;;;;0.68;100.00;100296.16;4949241;28;20057;-77
2022/12/21 08:31:20;;;;;;;;;;;;;;;0.75;100.00;100295.00;4943850;28;19955;-76
2022/12/21 08:33:47;;;;;;;;;;;;;;;0.82;100.00;100294.66;4947953;29;20298;-76
2022/12/21 08:36:14;;;;;;;;;;;;;;;0.80;100.00;100293.91;4944937;28;19918;-76
2022/12/21 08:38:40;;;;;;;;;;;;;;;0.81;100.00;100289.56;4945242;28;19926;-77
2022/12/21 08:41:05;;;;;;;;;;;;;;;0.86;100.00;100297.16;4946350;28;19972;-76
2022/12/21 08:43:33;;;;;;;;;;;;;;;0.91;100.00;100303.84;4943722;28;20454;-76
2022/12/21 08:46:01;;;;;;;;;;;;;;;0.97;100.00;100307.94;4945814;28;20259;-76
2022/12/21 08:48:26;;;;;;;;;;;;;;;1.01;100.00;100305.13;4947524;28;19919;-75
2022/12/21 08:50:52;;;;;;;;;;;;;;;1.05;100.00;100301.53;4943787;28;19919;-76
2022/12/21 08:53:17;;;;;;;;;;;;;;;1.08;100.00;100306.56;4946839;28;20382;-75
2022/12/21 08:55:43;;;;;;;;;;;;;;;1.13;100.00;100309.81;4957900;28;20348;-76
2022/12/21 08:58:08;;;;;;;;;;;;;;;1.17;100.00;100306.22;4942520;28;20298;-76
2022/12/21 09:00:34;;;;;;;;;;;;;;;1.22;100.00;100304.25;4944421;28;19918;-76
2022/12/21 09:02:59;;;;;;;;;;;;;;;1.29;100.00;100314.38;4942832;29;20338;-76
2022/12/21 09:05:25;;;;;;;;;;;;;;;1.34;100.00;100307.22;4944464;28;19919;-75
2022/12/21 09:07:50;;;;;;;;;;;;;;;1.37;100.00;100300.13;4944516;28;19942;-74
2022/12/21 09:10:16;;;;;;;;;;;;;;;1.37;100.00;100304.47;4945067;28;20020;-74
2022/12/21 09:12:41;;;;;;;;;;;;;;;1.29;100.00;100309.19;4943441;28;19972;-78
2022/12/21 09:15:07;;;;;;;;;;;;;;;1.27;100.00;100311.84;4940913;28;19934;-78
2022/12/21 09:17:33;;;;;;;;;;;;;;;1.31;100.00;100317.75;4944427;28;19966;-78
2022/12/21 09:19:58;;;;;;;;;;;;;;;1.35;100.00;100324.53;4942880;28;19925;-77
2022/12/21 09:22:25;;;;;;;;;;;;;;;1.40;100.00;100319.97;4937998;28;19918;-78
2022/12/21 09:24:51;;;;;;;;;;;;;;;1.42;100.00;100311.16;4945588;28;20259;-78
2022/12/21 09:27:16;;;;;;;;;;;;;;;1.49;100.00;100302.19;4943451;28;19993;-78
2022/12/21 09:29:42;;;;;;;;;;;;;;;1.58;100.00;100300.94;4941507;28;19969;-78
2022/12/21 09:32:07;;;;;;;65.28;43.88;;;;;;;1.61;100.00;100314.66;4941418;28;19919;-77
2022/12/21 09:34:33;;;;;;;58.40;42.35;;;;;;;1.62;100.00;100303.34;4945218;28;20042;-79
2022/12/21 09:36:59;;;;;;;67.57;44.67;;;;;;;1.66;100.00;100309.25;4942942;29;20088;-78
2022/12/21 09:39:24;;;;;;;65.82;44.30;;;;;;;1.67;100.00;100313.53;4944256;28;20044;-78
2022/12/21 09:42:05;;;;;;;62.60;44.65;;;;;;;1.66;100.00;100306.63;4941479;28;20115;-77
2022/12/21 09:45:11;;;;;;;70.20;45.08;;;;;;;1.70;100.00;100303.00;4938825;29;20097;-78
2022/12/21 09:48:03;;;;;;;64.70;43.78;;;;;;;1.70;100.00;100304.75;4962676;28;20098;-78
2022/12/21 09:50:36;;;;;;;69.38;44.22;;;;;;;1.60;100.00;100306.91;4937359;28;20121;-77
2022/12/21 09:53:12;;;;;;;70.07;45.85;;;;;;;1.64;100.00;100316.28;4937324;28;20102;-77
2022/12/21 09:55:45;;;;;;;67.65;45.45;;;;;;;1.61;100.00;100312.06;4943301;29;20165;-78
2022/12/21 09:58:15;;;;;;;70.13;45.42;;;;;;;1.60;100.00;100319.91;4947007;28;20044;-78
2022/12/21 10:00:45;;;;;;;69.40;46.47;;;;;;;1.59;100.00;100313.06;4942818;29;20039;-77
2022/12/21 10:03:26;;;;;;;66.60;46.88;;;;;;;1.66;100.00;100306.63;4941958;28;20111;-78
2022/12/21 10:06:27;;;;;;;69.55;46.25;;;;;;;1.65;100.00;100302.34;4943463;29;20050;-78
2022/12/21 10:09:08;;;;;;;67.97;46.75;;;;;;;1.72;100.00;100288.16;4930961;28;20058;-77
2022/12/21 10:11:40;;;;;;;69.30;45.05;;;;;;;1.62;100.00;100286.88;4937791;28;20036;-78
2022/12/21 10:14:21;;;;;;;64.85;44.67;;;;;;;1.53;100.00;100276.91;4942412;28;20039;-78
2022/12/21 10:16:59;;;;;;;73.57;49.50;;;;;;;1.55;100.00;100270.72;4943746;28;20039;-78
2022/12/21 10:19:50;;;;;;;73.18;49.47;;;;;;;1.62;100.00;100271.28;4940510;28;20036;-78
2022/12/21 10:22:29;;;;;;;75.07;50.38;;;;;;;1.74;100.00;100269.88;4927851;28;20051;-77
2022/12/21 10:25:01;;;;;;;73.00;48.63;;;;;;;1.84;100.00;100255.53;4938220;28;20043;-76
2022/12/21 10:27:40;;;;;;;68.88;49.17;;;;;;;1.96;100.00;100250.59;4940601;29;20038;-78
2022/12/21 10:30:12;;;;;;;68.32;47.13;;;;;;;2.04;100.00;100256.31;4939503;28;20039;-77
2022/12/21 10:32:40;;;;;;;68.47;47.70;;;;;;;2.14;100.00;100258.44;4944236;28;20050;-78
2022/12/21 10:35:22;;;;;;;72.38;48.45;;;;;;;2.25;100.00;100256.19;4943765;28;20162;-78
2022/12/21 10:37:53;;;;;;;68.28;47.08;;;;;;;2.33;100.00;100251.47;4941907;28;20058;-78
2022/12/21 10:40:25;;;;;;;69.93;45.53;;;;;;;2.40;100.00;100250.25;4945317;28;20043;-79
2022/12/21 10:42:53;;;;;;;69.10;46.92;;;;;;;2.49;100.00;100249.78;4939724;28;20043;-78
2022/12/21 10:45:22;;;;;;;70.35;47.47;;;;;;;2.55;100.00;100254.69;4956136;28;20024;-79
2022/12/21 10:47:48;;;;;;;65.80;45.83;;;;;;;2.65;100.00;100250.72;4940161;28;20055;-79
2022/12/21 10:50:30;;;;;;;64.32;46.28;;;;;;;2.75;100.00;100256.31;4942671;28;20399;-79
2022/12/21 10:52:57;;;;;;;;;;;;;;;2.84;100.00;100241.06;4942596;28;20033;-78
2022/12/21 10:55:22;;;;;;;61.65;45.05;;;;;;;2.92;100.00;100232.03;4942385;28;20013;-78
2022/12/21 10:57:56;;;;;;;64.45;45.38;;;;;;;2.94;100.00;100227.59;4939208;28;20123;-79
2022/12/21 11:00:29;;;;;;;71.80;46.45;;;;;;;2.97;100.00;100224.81;4942069;28;20090;-78
2022/12/21 11:03:06;;;;;;;69.80;47.42;;;;;;;3.03;100.00;100224.50;4943576;28;20031;-79
2022/12/21 11:05:40;;;;;;;77.03;49.45;;;;;;;3.11;100.00;100219.72;4935593;29;20036;-77
2022/12/21 11:08:26;;;;;;;69.87;47.30;;;;;;;3.18;100.00;100215.88;4939943;28;20459;-77
2022/12/21 11:10:53;;;;;;;;;;;;;;;3.23;100.00;100211.28;4948885;28;20007;-77
2022/12/21 11:13:20;;;;;;;;;;;;;;;3.27;100.00;100210.16;4945221;28;19919;-79
2022/12/21 11:16:09;;;;;;;;;;;;;;;3.33;100.00;100212.47;4941363;28;19923;-79
2022/12/21 11:18:34;;;;;;;;;;;;;;;3.38;100.00;100210.44;4934368;28;19923;-79
2022/12/21 11:21:00;;;;;;;;;;;;;;;3.42;100.00;100205.91;4942296;28;20340;-79
2022/12/21 11:23:26;;;;;;;;;;;;;;;3.45;100.00;100205.75;4945541;28;20359;-78
2022/12/21 11:25:53;;;;;;;;;;;;;;;3.53;100.00;100194.00;4940063;28;19923;-77
2022/12/21 11:28:20;;;;;;;;;;;;;;;3.59;100.00;100191.00;4942215;28;19919;-78
2022/12/21 11:30:51;;;;;;;;;;;;;;;3.65;100.00;100182.84;4945675;28;20521;-77
2022/12/21 11:33:17;;;;;;;;;;;;;;;3.46;100.00;100179.59;4941471;28;19962;-78
2022/12/21 11:36:03;;;;;;;;;;;;;;;3.55;100.00;100181.69;4942186;28;20033;-76
2022/12/21 11:38:33;;;;;;;;;;;;;;;3.63;100.00;100174.28;4942076;28;19919;-77
2022/12/21 11:41:07;;;;;;;;;;;;;;;3.69;100.00;100173.94;4940422;29;19964;-79
2022/12/21 11:43:48;;;;;;;;;;;;;;;3.76;100.00;100168.41;4934355;28;20040;-78
2022/12/21 11:46:25;;;;;;;;;;;;;;;3.83;100.00;100167.94;4941270;28;19925;-76
2022/12/21 11:48:50;;;;;;;;;;;;;;;3.85;100.00;100158.28;4941839;29;19958;-77
2022/12/21 11:51:18;;;;;;;;;;;;;;;3.86;100.00;100148.66;4940244;28;19984;-78
2022/12/21 11:53:44;;;;;;;;;;;;;;;3.92;100.00;100150.94;4939891;28;19918;-79
2022/12/21 11:56:20;;;;;;;;;;;;;;;3.96;100.00;100155.06;4941776;28;19972;-78
2022/12/21 11:58:58;;;;;;;;;;;;;;;3.99;100.00;100149.66;4941807;28;19919;-78
2022/12/21 12:01:43;;;;;;;;;;;;;;;4.01;100.00;100134.72;4941945;28;19923;-76
2022/12/21 12:04:24;;;;;;;;;;;;;;;4.05;100.00;100128.44;4935471;28;19919;-77
2022/12/21 12:07:08;;;;;;;;;;;;;;;4.06;100.00;100128.31;4940354;28;19925;-79
2022/12/21 12:09:52;;;;;;;;;;;;;;;4.09;100.00;100116.88;4936704;28;19922;-79
2022/12/21 12:12:17;;;;;;;;;;;;;;;4.11;100.00;100121.09;4940609;28;19919;-77
2022/12/21 12:14:52;;;;;;;;;;;;;;;4.16;100.00;100112.97;4943198;28;19941;-78
2022/12/21 12:17:20;;;;;;;;;;;;;;;4.18;100.00;100113.75;4944969;28;19919;-79
2022/12/21 12:19:59;;;;;;;;;;;;;;;4.20;100.00;100109.25;4942340;28;19918;-79
2022/12/21 12:22:24;;;;;;;;;;;;;;;4.20;100.00;100117.09;4941977;28;19919;-76
2022/12/21 12:24:50;;;;;;;;;;;;;;;4.17;100.00;100111.22;4938602;28;19997;-77
2022/12/21 12:27:15;;;;;;;;;;;;;;;4.13;100.00;100116.59;4943588;29;19918;-76
2022/12/21 12:29:59;;;;;;;;;;;;;;;4.09;100.00;100109.03;4945534;28;19922;-79
2022/12/21 12:32:28;;;;;;;;;;;;;;;4.07;100.00;100108.28;4942345;28;20076;-77
2022/12/21 12:34:53;;;;;;;;;;;;;;;4.09;100.00;100103.81;4944299;28;19926;-78
2022/12/21 12:37:39;;;;;;;;;;;;;;;4.10;100.00;100101.13;4942829;28;20302;-78
2022/12/21 12:40:19;;;;;;;;;;;;;;;4.12;100.00;100099.25;4942195;28;19941;-79
2022/12/21 12:42:55;;;;;;;;;;;;;;;4.14;100.00;100091.31;4941208;29;19929;-79
2022/12/21 12:45:35;;;;;;;;;;;;;;;4.17;100.00;100083.31;4939588;28;19918;-81